Terminal Aerodrome Forecast
Issued by NWS

Home | Current Version | Previous Version | Text Only | Print | Product List | Glossary On
Versions: 1 2 3 4 5 6 7 8 9 10 11 12 13 14 15 16 17 18 19
000
FTUS42 KJAX 072334
TAFCRG
TAF
KCRG 072334Z 0800/0824 29008KT P6SM SKC
     FM081400 26008KT P6SM SKC
     FM081600 25014G20KT P6SM FEW040 SCT250=

USA.gov is the U.S. government's official web portal to all federal, state and local government web resources and services.